• Join FlightAware (Why Join?)
  • Login
  • US Flag 
Gobble Gobble! 
12:01AM EST


 

Airport Tracker/Info


-or-


 

Live Flight TrackerFlight Track Log ✈ UAL258 ✈ 14-May-2013 ✈ KORD - KLAS

Flight Track Log - Related Links

Times and Time Zones

All times are in EDT time to prevent confusion due to time zone crossing. See the UAL258 flight status page for this flight to view local times or setup timezone preferences in your user account.

Time Position Orientation Groundspeed Altitude Reporting Facility
EDT Latitude Longitude Course Direction KTS MPH feet Rate Location/Type
09:01AM 41.9667 -88.0000 252° West 187 215 3,200  Level Chicago TRACON
09:02AM 41.9594 -88.1525 266° West 236 272 5,700 1,920 Climbing Chicago Center
09:03AM 41.8323 -88.4881 254° West  Level FlightAware Approximate
09:04AM 41.7993 -88.6375 254° West  Level FlightAware Approximate
09:04AM 41.9514 -88.2475 264° West 255 293 8,800  Level Chicago Center
09:05AM 41.7661 -88.7867 253° West  Level FlightAware Approximate
09:05AM 41.9486 -88.3425 268° West 256 295 11,700  Level Chicago Center
09:06AM 41.7327 -88.9358 252° West  Level FlightAware Approximate
09:06AM 41.9428 -88.4494 266° West 284 327 12,700  Level Chicago Center
09:07AM 41.9006 -88.5922 248° West 339 390 15,300 2,220 Climbing Chicago Center
09:08AM 41.8683 -88.7133 250° West 347 399 17,300 1,860 Climbing Chicago Center
09:09AM 41.8336 -88.8408 250° West 363 418 19,200 1,800 Climbing Chicago Center
09:10AM 41.7969 -88.9719 249° West 376 433 21,000 1,620 Climbing Chicago Center
09:11AM 41.7611 -89.1031 250° West 379 436 22,600 1,500 Climbing Chicago Center
09:12AM 41.7150 -89.2653 249° West 392 451 24,200 1,440 Climbing Chicago Center
09:13AM 41.6769 -89.4039 250° West 397 457 25,600 1,200 Climbing Chicago Center
09:14AM 41.6397 -89.5450 251° West 404 465 26,800 1,320 Climbing Chicago Center
09:15AM 41.5994 -89.6764 248° West 410 472 28,400 1,320 Climbing Chicago Center
09:16AM 41.5531 -89.8450 250° West 408 470 29,600 1,080 Climbing Chicago Center
09:17AM 41.5111 -89.9883 249° West 415 478 30,700 1,020 Climbing Chicago Center
09:18AM 41.4692 -90.1319 249° West 418 481 31,800 1,200 Climbing Chicago Center
09:19AM 41.4292 -90.2731 249° West 412 474 33,200 1,020 Climbing Chicago Center
09:20AM 41.3886 -90.4097 248° West 402 463 34,000 480 Climbing Chicago Center
09:21AM 41.3400 -90.5800 249° West 412 474 34,300 360 Climbing Chicago Center
09:22AM 41.3025 -90.7317 252° West 431 496 34,800 660 Climbing Chicago Center
09:23AM 41.2717 -90.8817 255° West 424 488 35,700 540 Climbing Chicago Center
09:24AM 41.2419 -91.0292 255° West 416 479 36,000 120 Climbing Chicago Center
09:25AM 41.2122 -91.1744 255° West 411 473 36,000  Level Chicago Center
09:26AM 41.1817 -91.3219 255° West 415 478 36,000  Level Chicago Center
09:27AM 41.1444 -91.4975 254° West 413 475 36,000  Level Chicago Center
09:28AM 41.1139 -91.6456 255° West 415 478 36,000  Level Chicago Center
09:29AM 41.0869 -91.7747 255° West 413 475 36,000  Level Chicago Center
09:30AM 41.0489 -91.9519 254° West 419 482 36,000  Level Chicago Center
09:31AM 41.0178 -92.0992 254° West 420 483 36,000  Level Chicago Center
09:32AM 40.9856 -92.2442 254° West 417 480 36,000  Level Chicago Center
09:33AM 40.9539 -92.3919 254° West 420 483 36,000  Level Chicago Center
09:34AM 40.9147 -92.5678 254° West 421 484 36,000  Level Chicago Center
09:36AM 40.8825 -92.7136 254° West 420 483 36,000  Level Chicago Center
09:37AM 40.8508 -92.8594 254° West 420 483 36,000  Level Chicago Center
09:37AM 40.8375 -92.9186 253° West 420 483 36,000  Level Minneapolis Center
09:38AM 40.8050 -93.0636 254° West 418 481 36,000  Level Minneapolis Center
09:39AM 40.7719 -93.2097 253° West 420 483 36,000  Level Minneapolis Center
09:40AM 40.7383 -93.3536 253° West 419 482 36,000  Level Minneapolis Center
09:41AM 40.6994 -93.5267 254° West 417 480 36,000  Level Minneapolis Center
09:42AM 40.6633 -93.6742 252° West 424 488 36,000  Level Minneapolis Center
09:43AM 40.6294 -93.8214 253° West 425 489 36,000  Level Minneapolis Center
09:44AM 40.5947 -93.9672 253° West 424 488 36,000  Level Minneapolis Center
09:45AM 40.5656 -94.1178 256° West 428 493 36,000  Level Minneapolis Center
09:46AM 40.5394 -94.2661 257° West 425 489 36,000  Level Minneapolis Center
09:47AM 40.5061 -94.4461 256° West 426 490 36,000  Level Minneapolis Center
09:48AM 40.4803 -94.5789 256° West 424 488 36,000  Level Minneapolis Center
09:49AM 40.4522 -94.7303 256° West 425 489 36,000  Level Minneapolis Center
09:50AM 40.4172 -94.9122 256° West 428 493 36,000  Level Minneapolis Center
09:51AM 40.3892 -95.0636 256° West 427 491 36,000  Level Minneapolis Center
09:52AM 40.3597 -95.2158 256° West 430 495 36,000  Level Minneapolis Center
09:53AM 40.3294 -95.3675 255° West 430 495 36,000  Level Minneapolis Center
09:54AM 40.3006 -95.5181 256° West 427 491 36,000  Level Minneapolis Center
09:55AM 40.2703 -95.6717 256° West 431 496 36,000  Level Minneapolis Center
09:56AM 40.2392 -95.8247 255° West 434 499 36,000  Level Minneapolis Center
09:57AM 40.2094 -95.9758 256° West 431 496 36,000  Level Minneapolis Center
09:58AM 40.1778 -96.1256 255° West 428 493 36,000  Level Minneapolis Center
09:59AM 40.1411 -96.3097 255° West 434 499 36,000  Level Minneapolis Center
10:01AM 40.1094 -96.4617 255° West 434 499 36,000  Level Minneapolis Center
10:02AM 40.0778 -96.6139 255° West 433 498 36,000  Level Minneapolis Center
10:03AM 40.0464 -96.7664 255° West 435 501 36,000  Level Minneapolis Center
10:04AM 40.0128 -96.9186 254° West 436 502 36,000  Level Minneapolis Center
10:05AM 39.9806 -97.0714 255° West 438 504 36,000  Level Minneapolis Center
10:06AM 39.9483 -97.2247 255° West 437 503 36,000  Level Minneapolis Center
10:07AM 39.9114 -97.3975 254° West 437 503 36,000  Level Minneapolis Center
10:08AM 39.8778 -97.5500 254° West 437 503 36,000  Level Minneapolis Center
10:09AM 39.8450 -97.7025 254° West 437 503 36,000  Level Minneapolis Center
10:10AM 39.8106 -97.8544 254° West 437 503 36,000  Level Minneapolis Center
10:11AM 39.7769 -98.0089 254° West 440 506 36,000  Level Minneapolis Center
10:12AM 39.7367 -98.1897 254° West 435 501 36,000  Level Minneapolis Center
10:13AM 39.7019 -98.3417 254° West 436 502 36,000  Level Minneapolis Center
10:14AM 39.6678 -98.4933 254° West 437 503 36,000  Level Minneapolis Center
10:15AM 39.6328 -98.6439 253° West 436 502 36,000  Level Minneapolis Center
10:15AM 39.6192 -98.7047 254° West 434 499 36,000  Level Denver Center
10:16AM 39.5847 -98.8550 253° West 434 499 36,000  Level Denver Center
10:17AM 39.5497 -99.0050 253° West 434 499 36,000  Level Denver Center
10:18AM 39.5142 -99.1564 253° West 436 502 36,000  Level Denver Center
10:19AM 39.4719 -99.3383 253° West 439 505 36,000  Level Denver Center
10:21AM 39.4386 -99.4764 253° West 441 507 36,000  Level Denver Center
10:22AM 39.3986 -99.6467 253° West 442 509 36,000  Level Denver Center
10:23AM 39.3633 -99.7908 252° West 441 507 36,000  Level Denver Center
10:24AM 39.3231 -99.9592 253° West 439 505 36,000  Level Denver Center
10:25AM 39.2878 -100.1039 253° West 440 506 36,000  Level Denver Center
10:26AM 39.2536 -100.2492 253° West 441 507 36,000  Level Denver Center
10:27AM 39.2175 -100.4183 255° West 440 506 36,000  Level Denver Center
10:28AM 39.1869 -100.5678 255° West 446 513 36,000  Level Denver Center
10:29AM 39.1503 -100.7372 254° West 443 510 36,000  Level Denver Center
10:30AM 39.1194 -100.8828 255° West 441 507 36,000  Level Denver Center
10:31AM 39.0819 -101.0522 254° West 441 507 36,000  Level Denver Center
10:32AM 39.0517 -101.1994 255° West 442 509 36,000  Level Denver Center
10:33AM 39.0175 -101.3544 254° West 442 509 36,000  Level Denver Center
10:34AM 38.9739 -101.5486 254° West 444 511 36,000  Level Denver Center
10:35AM 38.9417 -101.6944 254° West 443 510 36,000  Level Denver Center
10:36AM 38.9036 -101.8653 254° West 446 513 36,000  Level Denver Center
10:37AM 38.8708 -102.0111 254° West 447 514 36,000  Level Denver Center
10:38AM 38.8311 -102.1811 253° West 447 514 36,000  Level Denver Center
10:39AM 38.7986 -102.3283 254° West 447 514 36,000  Level Denver Center
10:40AM 38.7589 -102.4992 253° West 451 519 36,000  Level Denver Center
10:41AM 38.7250 -102.6447 253° West 448 516 36,000  Level Denver Center
10:42AM 38.6850 -102.8158 253° West 446 513 36,000  Level Denver Center
10:43AM 38.6511 -102.9606 253° West 444 511 36,000  Level Denver Center
10:44AM 38.6108 -103.1289 253° West 445 512 36,000  Level Denver Center
10:46AM 38.5767 -103.2744 253° West 446 513 36,000  Level Denver Center
10:47AM 38.5356 -103.4411 253° West 449 517 36,000  Level Denver Center
10:48AM 38.5011 -103.5875 253° West 447 514 36,000  Level Denver Center
10:49AM 38.4600 -103.7564 253° West 447 514 36,000  Level Denver Center
10:50AM 38.4253 -103.9000 253° West 446 513 36,000  Level Denver Center
10:51AM 38.3844 -104.0689 253° West 447 514 36,000  Level Denver Center
10:52AM 38.3481 -104.2128 252° West 447 514 36,000  Level Denver Center
10:53AM 38.3064 -104.3806 252° West 448 516 36,000  Level Denver Center
10:54AM 38.2858 -104.5294 260° West 451 519 36,000  Level Denver Center
10:55AM 38.2700 -104.7069 264° West 454 522 36,000  Level Denver Center
10:56AM 38.2556 -104.8592 263° West 454 522 36,000  Level Denver Center
10:57AM 38.2400 -105.0364 264° West 454 522 36,000  Level Denver Center
10:58AM 38.2269 -105.1881 264° West 453 521 36,000  Level Denver Center
10:59AM 38.2097 -105.3644 263° West 451 519 36,000  Level Denver Center
11:00AM 38.1942 -105.5175 263° West 455 524 36,000  Level Denver Center
11:01AM 38.1761 -105.6956 263° West 456 525 36,000  Level Denver Center
11:02AM 38.1614 -105.8467 263° West 452 520 36,000  Level Denver Center
11:03AM 38.1425 -106.0242 262° West 454 522 36,000  Level Denver Center
11:04AM 38.1272 -106.1772 263° West 454 522 36,000  Level Denver Center
11:05AM 38.1094 -106.3375 262° West 455 524 36,000  Level Denver Center
11:06AM 38.0911 -106.5136 263° West 453 521 36,000  Level Denver Center
11:07AM 38.0753 -106.6619 262° West 445 512 36,000  Level Denver Center
11:08AM 38.0567 -106.8344 262° West 443 510 36,000  Level Denver Center
11:09AM 38.0400 -106.9831 262° West 442 509 36,000  Level Denver Center
11:10AM 38.0239 -107.1322 262° West 446 513 36,000  Level Denver Center
11:11AM 38.0050 -107.3039 262° West 450 518 36,000  Level Denver Center
11:12AM 37.9850 -107.4756 262° West 442 509 36,000  Level Denver Center
11:13AM 37.9678 -107.6244 262° West 445 512 36,000  Level Denver Center
11:14AM 37.9469 -107.7981 261° West 447 514 36,000  Level Denver Center
11:16AM 37.9300 -107.9469 262° West 446 513 36,000  Level Denver Center
11:17AM 37.9122 -108.0933 261° West 444 511 36,000  Level Denver Center
11:18AM 37.8917 -108.2683 262° West 446 513 36,000  Level Denver Center
11:19AM 37.8733 -108.4147 261° West 443 510 36,000  Level Denver Center
11:20AM 37.8519 -108.5861 261° West 443 510 36,000  Level Denver Center
11:21AM 37.8344 -108.7314 261° West 440 506 36,000  Level Denver Center
11:22AM 37.8119 -108.9014 261° West 438 504 36,000  Level Denver Center
11:23AM 37.7797 -109.0450 254° West 443 510 36,000  Level Denver Center
11:24AM 37.7383 -109.2136 253° West 448 516 36,000  Level Denver Center
11:25AM 37.7036 -109.3564 253° West 447 514 36,000  Level Denver Center
11:26AM 37.6608 -109.5242 252° West 450 518 36,000  Level Denver Center
11:27AM 37.6247 -109.6675 252° West 449 517 36,000 -300 Level Denver Center
11:28AM 37.5825 -109.8339 252° West 447 514 35,400 -780 Descending Denver Center
11:29AM 37.5456 -109.9789 252° West 453 521 34,500 -1,020 Descending Denver Center
11:30AM 37.5031 -110.1461 252° West 450 518 33,300 -1,260 Descending Denver Center
11:31AM 37.4692 -110.2747 252° West 440 506 32,000 -660 Descending Denver Center
11:32AM 37.4250 -110.4497 252° West 438 504 32,000  Level Denver Center
11:33AM 37.3864 -110.5936 251° West 434 499 32,000  Level Denver Center
11:34AM 37.3469 -110.7431 252° West 446 513 32,000  Level Denver Center
11:35AM 37.3069 -110.8911 251° West 448 516 32,000  Level Denver Center
11:36AM 37.2675 -111.0408 252° West 453 521 32,000  Level Denver Center
11:37AM 37.2281 -111.1897 252° West 450 518 32,000  Level Denver Center
11:38AM 37.1783 -111.3689 251° West 454 522 32,000  Level Denver Center
11:39AM 37.1392 -111.5169 252° West 448 516 32,000  Level Denver Center
11:40AM 37.1028 -111.6644 253° West 444 511 32,000  Level Denver Center
11:41AM 37.0622 -111.8133 251° West 448 516 32,000 -120 Level Denver Center
11:42AM 37.0294 -111.9683 255° West 457 526 31,800 -540 Descending Denver Center
11:43AM 36.9989 -112.1203 256° West 452 520 30,900 -1,020 Descending Denver Center
11:44AM 36.9772 -112.2122 254° West 453 521 30,300 -1,080 Descending Los Angeles Center
11:45AM 36.9467 -112.3647 256° West 451 519 29,300 -1,020 Descending Los Angeles Center
11:46AM 36.9150 -112.5133 255° West 446 513 28,300 -1,020 Descending Los Angeles Center
11:47AM 36.8847 -112.6619 256° West 442 509 27,300 -1,020 Descending Los Angeles Center
11:48AM 36.8533 -112.8053 255° West 432 497 26,300 -1,020 Descending Los Angeles Center
11:49AM 36.8175 -112.9764 255° West 425 489 25,200 -1,020 Descending Los Angeles Center
11:50AM 36.7869 -113.1144 255° West 415 478 24,200 -960 Descending Los Angeles Center
11:51AM 36.7583 -113.2525 256° West 411 473 23,300 -960 Descending Los Angeles Center
11:52AM 36.7289 -113.3861 255° West 402 463 22,300 -1,020 Descending Los Angeles Center
11:53AM 36.7000 -113.5186 255° West 397 457 21,300 -1,020 Descending Los Angeles Center
11:54AM 36.6703 -113.6486 254° West 392 451 20,300 -1,020 Descending Los Angeles Center
11:55AM 36.6372 -113.8006 255° West 381 438 19,200 -1,020 Descending Los Angeles Center
11:56AM 36.6039 -113.9206 251° West 371 427 18,200 -1,020 Descending Los Angeles Center
11:57AM 36.5594 -114.0314 243° Southwest 361 415 17,100 -1,020 Descending Los Angeles Center
11:58AM 36.5208 -114.1400 246° West 349 402 16,200 -1,020 Descending Los Angeles Center
11:59AM 36.5081 -114.1864 251° West 350 403 15,700 -1,380 Descending Los Angeles Center
11:59AM 36.4817 -114.2428 240° Southwest 342 394 14,800 -1,800 Descending Los Angeles Center
12:01PM 36.4369 -114.3678 246° West 332 382 12,700 -1,380 Descending Los Angeles Center
12:02PM 36.4000 -114.4647 245° Southwest 312 359 12,000 -780 Descending Los Angeles Center
12:03PM 36.3564 -114.5544 239° Southwest 300 345 11,200 -900 Descending Los Angeles Center
12:03PM 36.3133 -114.6331 236° Southwest 295 339 10,300 -900 Descending Los Angeles Center
12:05PM 36.2642 -114.7178 234° Southwest 290 334 9,300 -900 Descending Los Angeles Center
12:05PM 36.2233 -114.7942 236° Southwest 283 326 8,500 -960 Descending Los Angeles Center
12:07PM 36.1772 -114.8789 236° Southwest 279 321 7,600 -780 Descending Los Angeles Center
12:08PM 36.1308 -114.9658 237° Southwest 268 308 6,800 -840 Descending Los Angeles Center
12:09PM 36.1369 -115.0308 277° West 225 259 6,000 -1,080 Descending Los Angeles Center
12:09PM 36.1375 -115.0414 274° West 238 274 5,700 -1,200 Descending Los Angeles Center